Time;durP1;ratioP1;P1;durP2;ratioP2;P2;SDS_P1;SDS_P2;PMS_P1;PMS_P2;Temp;Humidity;BMP_temperature;BMP_pressure;BME280_temperature;BME280_humidity;BME280_pressure;Samples;Min_cycle;Max_cycle;Signal;HPM_P1;HPM_P2
2022/12/13 00:00:30;;;;;;;55.80;16.40;;;;;;;-9.06;100.00;101098.28;6158715;23;20018;-86
2022/12/13 00:03:01;;;;;;;57.88;15.63;;;;;;;-9.13;100.00;101085.78;6153718;23;20006;-86
2022/12/13 00:05:27;;;;;;;56.33;14.77;;;;;;;-9.08;100.00;101121.75;6153694;23;20009;-86
2022/12/13 00:07:52;;;;;;;44.45;14.15;;;;;;;-9.23;100.00;101104.78;6153943;23;20001;-86
2022/12/13 00:10:17;;;;;;;47.87;14.03;;;;;;;-9.19;100.00;101116.59;6158211;23;20006;-86
2022/12/13 00:12:42;;;;;;;49.40;14.50;;;;;;;-9.38;100.00;101084.28;6157746;23;20330;-87
2022/12/13 00:15:08;;;;;;;48.93;14.27;;;;;;;-9.18;100.00;101113.06;6158469;23;20001;-87
2022/12/13 00:17:34;;;;;;;48.60;14.52;;;;;;;-9.23;100.00;101125.56;6130667;23;20016;-87
2022/12/13 00:19:59;;;;;;;48.77;13.77;;;;;;;-9.23;100.00;101112.59;6156227;23;20001;-86
2022/12/13 00:22:24;;;;;;;47.57;14.77;;;;;;;-9.17;100.00;101105.13;6158513;23;20006;-86
2022/12/13 00:24:53;;;;;;;41.90;13.67;;;;;;;-9.04;100.00;101099.78;6132112;23;20005;-86
2022/12/13 00:27:18;;;;;;;42.72;13.63;;;;;;;-9.06;100.00;101106.06;6158787;23;20005;-86
2022/12/13 00:29:43;;;;;;;30.60;11.90;;;;;;;-9.18;100.00;101097.47;6157091;23;20076;-86
2022/12/13 00:32:08;;;;;;;39.03;14.00;;;;;;;-9.20;100.00;101109.75;6155565;23;20016;-86
2022/12/13 00:34:34;;;;;;;36.63;12.60;;;;;;;-9.28;100.00;101095.59;6155343;23;20052;-86
2022/12/13 00:36:59;;;;;;;34.13;12.37;;;;;;;-9.31;100.00;101103.63;6153956;23;20017;-86
2022/12/13 00:39:25;;;;;;;29.63;11.93;;;;;;;-9.33;100.00;101115.91;6155415;23;20017;-87
2022/12/13 00:41:51;;;;;;;31.92;12.13;;;;;;;-9.25;100.00;101111.88;6129818;23;20369;-86
2022/12/13 00:44:18;;;;;;;44.23;12.80;;;;;;;-9.28;100.00;101118.97;6156177;23;20064;-87
2022/12/13 00:46:44;;;;;;;26.40;10.73;;;;;;;-9.43;100.00;101099.41;6154437;23;20067;-86
2022/12/13 00:51:47;;;;;;;30.07;11.57;;;;;;;-9.62;100.00;101087.03;6165809;22;20261;-86
2022/12/13 00:54:12;;;;;;;33.08;10.95;;;;;;;-9.55;100.00;101105.56;6126385;23;20002;-87
2022/12/13 00:56:37;;;;;;;30.07;11.23;;;;;;;-9.57;100.00;101102.25;6126536;23;20012;-86
2022/12/13 00:59:03;;;;;;;30.58;11.80;;;;;;;-9.58;100.00;101096.22;6123946;23;20006;-87
2022/12/13 01:01:35;;;;;;;31.33;11.63;;;;;;;-9.53;100.00;101094.09;6124576;23;20006;-86
2022/12/13 01:04:03;;;;;;;29.60;11.27;;;;;;;-9.43;100.00;101105.44;6125565;23;20010;-86
2022/12/13 01:06:34;;;;;;;37.10;11.90;;;;;;;-9.46;100.00;101092.69;6126397;23;20005;-86
2022/12/13 01:09:00;;;;;;;33.75;11.80;;;;;;;-9.44;100.00;101108.13;6126779;23;20010;-86
2022/12/13 01:11:26;;;;;;;39.50;12.37;;;;;;;-9.50;100.00;101093.06;6125601;23;20018;-86
2022/12/13 01:13:51;;;;;;;34.97;11.18;;;;;;;-9.43;100.00;101100.25;6126336;23;20005;-87
2022/12/13 01:16:17;;;;;;;36.77;12.70;;;;;;;-9.40;100.00;101101.75;6126177;23;20064;-86
2022/12/13 01:18:43;;;;;;;41.00;13.20;;;;;;;-9.36;100.00;101097.13;6122868;23;20006;-86
2022/12/13 01:21:14;;;;;;;34.97;12.77;;;;;;;-9.33;100.00;101097.75;6121399;23;20029;-87
2022/12/13 01:23:40;;;;;;;34.97;12.32;;;;;;;-9.54;100.00;101066.50;6149245;22;20488;-86
2022/12/13 01:26:08;;;;;;;42.47;13.10;;;;;;;-9.51;100.00;101073.25;6155809;23;20013;-87
2022/12/13 01:28:33;;;;;;;41.40;13.75;;;;;;;-9.38;100.00;101091.25;6127966;23;20465;-86
2022/12/13 01:31:03;;;;;;;50.57;14.73;;;;;;;-9.45;100.00;101091.75;6153372;23;20005;-86
2022/12/13 01:33:29;;;;;;;48.90;14.60;;;;;;;-9.54;100.00;101091.63;6154419;23;20001;-86
2022/12/13 01:35:55;;;;;;;48.77;14.30;;;;;;;-9.53;100.00;101101.06;6127640;23;20005;-87
2022/12/13 01:38:21;;;;;;;44.30;14.10;;;;;;;-9.54;100.00;101102.00;6153481;23;20033;-86
2022/12/13 01:40:49;;;;;;;39.60;13.20;;;;;;;-9.60;100.00;101087.75;6126920;23;20032;-86
2022/12/13 01:43:23;;;;;;;44.17;12.57;;;;;;;-9.55;100.00;101097.78;6154654;23;20028;-87
2022/12/13 01:45:48;;;;;;;37.88;12.57;;;;;;;-9.51;100.00;101102.59;6117229;23;20017;-87
2022/12/13 01:48:22;;;;;;;37.20;12.35;;;;;;;-9.48;100.00;101106.72;6154580;23;20002;-87
2022/12/13 01:50:51;;;;;;;38.42;11.63;;;;;;;-9.53;100.00;101099.28;6153418;23;20083;-87
2022/12/13 01:53:20;;;;;;;41.23;12.17;;;;;;;-9.55;100.00;101105.56;6152717;23;20116;-87
2022/12/13 01:55:51;;;;;;;39.17;12.70;;;;;;;-9.62;100.00;101106.03;6153296;23;20249;-87
2022/12/13 01:58:17;;;;;;;42.42;13.10;;;;;;;-9.54;100.00;101097.63;6152913;23;20093;-86
2022/12/13 02:00:44;;;;;;;39.67;12.98;;;;;;;-9.52;100.00;101093.16;6151053;23;20005;-86
2022/12/13 02:03:10;;;;;;;45.67;14.10;;;;;;;-9.67;100.00;101091.75;6152597;23;20167;-87
2022/12/13 02:05:40;;;;;;;39.75;12.77;;;;;;;-9.68;100.00;101100.47;6152906;23;20064;-87
2022/12/13 02:08:09;;;;;;;44.33;12.52;;;;;;;-9.80;100.00;101110.03;6126202;23;20088;-87
2022/12/13 02:10:35;;;;;;;30.97;11.40;;;;;;;-9.87;100.00;101108.88;6151010;23;20036;-88
2022/12/13 02:13:00;;;;;;;39.22;12.52;;;;;;;-9.91;100.00;101105.66;6151406;23;20430;-87
2022/12/13 02:15:32;;;;;;;35.23;12.30;;;;;;;-9.95;100.00;101089.50;6152031;23;20088;-86
2022/12/13 02:18:25;;;;;;;36.50;12.15;;;;;;;-9.84;100.00;101100.81;6152954;23;20002;-92
2022/12/13 02:21:09;;;;;;;38.45;13.15;;;;;;;-9.82;100.00;101092.00;6151760;23;20001;-89
2022/12/13 02:23:55;;;;;;;40.63;12.87;;;;;;;-9.60;100.00;101098.13;6152824;23;20009;-90
2022/12/13 02:26:36;;;;;;;31.00;11.73;;;;;;;-9.56;100.00;101089.16;6157037;23;20426;-92
2022/12/13 02:29:37;;;;;;;31.95;11.05;;;;;;;-9.60;100.00;101090.34;6161883;23;20011;-91
2022/12/13 02:32:27;;;;;;;35.72;11.60;;;;;;;-9.64;100.00;101094.94;6153373;23;20009;-90
2022/12/13 02:35:08;;;;;;;30.75;11.32;;;;;;;-9.71;100.00;101085.16;6126696;23;20366;-90
2022/12/13 02:37:57;;;;;;;26.33;10.35;;;;;;;-9.60;100.00;101093.75;6152210;23;20077;-90
2022/12/13 02:40:29;;;;;;;31.47;11.00;;;;;;;-9.67;100.00;101087.38;6152075;23;20099;-90
2022/12/13 02:46:20;;;;;;;29.20;11.20;;;;;;;-9.83;100.00;101054.03;6153024;23;20072;-91
2022/12/13 02:48:50;;;;;;;32.67;11.00;;;;;;;-9.63;100.00;101086.19;6152473;23;20060;-91
2022/12/13 02:51:18;;;;;;;28.85;10.90;;;;;;;-9.59;100.00;101082.44;6152314;23;20634;-90
2022/12/13 02:53:45;;;;;;;26.85;10.98;;;;;;;-9.62;100.00;101071.47;6152156;23;20036;-91
2022/12/13 02:56:10;;;;;;;31.70;11.60;;;;;;;-9.50;100.00;101077.47;6152546;23;20072;-90
2022/12/13 02:58:41;;;;;;;28.40;12.13;;;;;;;-9.49;100.00;101076.50;6152512;23;20374;-90
2022/12/13 03:01:20;;;;;;;34.60;11.17;;;;;;;-9.59;100.00;101071.25;6151807;23;20048;-91
2022/12/13 03:04:04;;;;;;;29.13;11.37;;;;;;;-9.66;100.00;101068.28;6151472;23;20244;-91
2022/12/13 03:06:35;;;;;;;30.77;11.55;;;;;;;-9.63;100.00;101064.63;6152169;23;20013;-90
2022/12/13 03:09:37;;;;;;;29.23;11.45;;;;;;;-9.57;100.00;101063.31;6152019;23;20025;-90
2022/12/13 03:15:12;;;;;;;28.67;11.05;;;;;;;-9.38;100.00;101050.56;6151750;23;20133;-90
2022/12/13 03:17:55;;;;;;;34.10;11.13;;;;;;;-9.35;100.00;101065.06;6151674;23;20486;-90
2022/12/13 03:20:24;;;;;;;31.47;12.03;;;;;;;-9.31;100.00;101064.69;6151768;23;20236;-89
2022/12/13 03:22:53;;;;;;;30.48;11.27;;;;;;;-9.25;100.00;101066.00;6151420;23;20013;-89
2022/12/13 03:25:21;;;;;;;34.75;13.23;;;;;;;-9.22;100.00;101064.91;6126038;23;20005;-90
2022/12/13 03:27:46;;;;;;;35.47;12.18;;;;;;;-9.33;100.00;101052.78;6153037;23;20019;-90
2022/12/13 03:30:12;;;;;;;28.87;12.53;;;;;;;-9.33;100.00;101048.44;6154814;23;20064;-90
2022/12/13 03:32:38;;;;;;;38.50;12.85;;;;;;;-9.30;100.00;101057.72;6152353;23;20009;-90
2022/12/13 03:35:03;;;;;;;30.87;12.13;;;;;;;-9.45;100.00;101054.56;6154992;23;20001;-90
2022/12/13 03:37:29;;;;;;;33.50;12.68;;;;;;;-9.36;100.00;101072.03;6151897;23;20012;-90
2022/12/13 03:39:55;;;;;;;36.30;11.70;;;;;;;-9.51;100.00;101049.88;6151724;23;20012;-91
2022/12/13 03:42:21;;;;;;;35.33;12.35;;;;;;;-9.57;100.00;101051.16;6151699;23;20008;-91
2022/12/13 03:44:50;;;;;;;31.77;12.20;;;;;;;-9.64;100.00;101037.03;6151819;23;20392;-92
2022/12/13 03:47:30;;;;;;;33.63;12.43;;;;;;;-9.54;100.00;101044.94;6125867;23;20589;-91
2022/12/13 03:50:08;;;;;;;32.40;11.93;;;;;;;-9.70;100.00;101030.56;6125530;23;20016;-92
2022/12/13 03:53:27;;;;;;;28.17;11.25;;;;;;;-9.73;100.00;101026.44;6152929;23;20131;-95
2022/12/13 03:55:53;;;;;;;29.30;10.80;;;;;;;-9.81;100.00;101025.38;6032354;23;20018;-91
2022/12/13 03:58:50;;;;;;;31.37;11.90;;;;;;;-9.77;100.00;101027.59;6006868;23;20011;-93
2022/12/13 04:01:16;;;;;;;29.85;11.52;;;;;;;-9.65;100.00;101037.97;6118625;23;20009;-94
2022/12/13 04:06:30;;;;;;;33.08;11.70;;;;;;;-9.52;100.00;101043.03;6093232;23;20072;-96
2022/12/13 04:08:55;;;;;;;30.70;11.43;;;;;;;-9.61;100.00;101040.22;6127550;23;20010;-93
2022/12/13 04:29:30;;;;;;;40.03;12.70;;;;;;;-9.85;100.00;101037.75;6161910;22;20022;-92
2022/12/13 04:31:55;;;;;;;36.40;13.02;;;;;;;-9.77;100.00;101031.97;6153344;23;20005;-92
2022/12/13 04:34:21;;;;;;;35.17;13.10;;;;;;;-9.60;100.00;101048.84;6152559;23;20044;-91
2022/12/13 04:36:46;;;;;;;33.55;12.57;;;;;;;-9.70;100.00;101027.97;6151401;23;20009;-92
2022/12/13 04:39:11;;;;;;;39.80;13.30;;;;;;;-9.77;100.00;101016.41;6151622;23;20014;-92
2022/12/13 04:41:38;;;;;;;37.50;13.70;;;;;;;-9.53;100.00;101054.38;6151049;23;20006;-92
2022/12/13 04:44:05;;;;;;;35.15;12.02;;;;;;;-9.53;100.00;101031.81;6152127;23;20329;-92
2022/12/13 04:46:55;;;;;;;33.75;12.40;;;;;;;-9.65;100.00;101007.66;6151240;23;20269;-93
2022/12/13 04:52:18;;;;;;;34.60;12.10;;;;;;;-9.62;100.00;101037.75;6143181;22;20269;-90
2022/12/13 04:54:44;;;;;;;34.20;11.40;;;;;;;-9.83;100.00;101012.53;6124592;23;20014;-88
2022/12/13 04:57:10;;;;;;;31.60;10.90;;;;;;;-9.72;100.00;101032.47;6153134;23;20495;-89
2022/12/13 04:59:36;;;;;;;28.10;11.05;;;;;;;-9.78;100.00;101030.34;6152760;23;20438;-89
2022/12/13 05:02:03;;;;;;;30.10;11.35;;;;;;;-9.97;100.00;101010.19;6152684;23;20002;-89
2022/12/13 05:04:29;;;;;;;32.05;11.60;;;;;;;-9.85;100.00;101036.94;6126951;23;20009;-88
2022/12/13 05:07:01;;;;;;;31.77;11.20;;;;;;;-10.12;100.00;101002.63;6126559;22;20475;-93
2022/12/13 05:09:26;;;;;;;30.63;11.50;;;;;;;-10.15;100.00;101002.06;6154883;23;20020;-94
2022/12/13 05:11:52;;;;;;;31.30;12.13;;;;;;;-10.04;100.00;101022.78;6154227;23;20080;-90
2022/12/13 05:14:23;;;;;;;30.63;12.27;;;;;;;-10.15;100.00;100999.47;6135695;23;20033;-94
2022/12/13 05:16:49;;;;;;;35.40;12.60;;;;;;;-9.96;100.00;101024.81;6154953;23;20006;-95
2022/12/13 05:38:25;;;;;;;33.07;10.03;;;;;;;-10.19;100.00;100984.16;6088464;23;20251;-94
2022/12/13 05:40:51;;;;;;;32.60;12.90;;;;;;;-10.23;100.00;100976.72;6155935;23;20618;-95
2022/12/13 05:43:22;;;;;;;45.15;13.50;;;;;;;-10.14;100.00;100995.94;6154870;23;20006;-94
2022/12/13 05:46:26;;;;;;;34.33;12.57;;;;;;;-10.04;100.00;100986.50;6155507;23;20489;-94
2022/12/13 05:48:52;;;;;;;35.80;12.23;;;;;;;-10.14;100.00;100981.22;6082974;23;20256;-94
2022/12/13 05:51:17;;;;;;;36.92;12.93;;;;;;;-9.95;100.00;101021.28;6135991;23;20006;-93
2022/12/13 05:53:42;;;;;;;45.03;16.70;;;;;;;-10.00;100.00;101011.25;6156626;23;20008;-93
2022/12/13 05:56:09;;;;;;;39.77;16.03;;;;;;;-10.24;100.00;100981.09;6168926;23;19996;-95
2022/12/13 05:58:37;;;;;;;36.38;13.02;;;;;;;-10.20;100.00;101005.00;6137868;23;20005;-94
2022/12/13 06:03:40;;;;;;;31.47;12.07;;;;;;;-10.32;100.00;100987.81;6154693;22;20025;-94
2022/12/13 06:06:08;;;;;;;27.93;10.83;;;;;;;-10.45;100.00;100977.59;6154213;23;20253;-94
2022/12/13 06:08:39;;;;;;;28.50;10.60;;;;;;;-10.49;100.00;100976.97;6154275;23;20093;-95
2022/12/13 06:11:08;;;;;;;30.83;11.38;;;;;;;-10.51;100.00;100971.91;6153158;23;20485;-94
2022/12/13 06:13:41;;;;;;;30.55;12.18;;;;;;;-10.51;100.00;100973.69;6154871;23;20009;-95
2022/12/13 06:19:38;;;;;;;32.60;11.98;;;;;;;-10.52;100.00;100983.22;6128769;23;20012;-93
2022/12/13 06:22:03;;;;;;;33.47;12.27;;;;;;;-10.42;100.00;100985.13;6156948;23;20037;-92
2022/12/13 06:24:28;;;;;;;30.03;11.43;;;;;;;-10.36;100.00;100989.78;6154238;23;20252;-94
2022/12/13 06:26:58;;;;;;;33.03;11.33;;;;;;;-10.24;100.00;101027.75;6162005;23;20005;-96
2022/12/13 06:29:25;;;;;;;30.55;11.30;;;;;;;-10.32;100.00;101022.31;6165599;23;20031;-95
2022/12/13 06:31:55;;;;;;;32.08;12.13;;;;;;;-10.44;100.00;101018.91;6166716;23;19997;-94
2022/12/13 06:34:24;;;;;;;30.63;11.97;;;;;;;-10.44;100.00;101020.69;6129351;23;20015;-94
2022/12/13 06:36:49;;;;;;;31.73;12.00;;;;;;;-10.43;100.00;101009.38;6154295;23;20324;-94
2022/12/13 06:39:15;;;;;;;30.13;11.25;;;;;;;-10.51;100.00;101000.41;6153123;23;20207;-93
2022/12/13 06:41:40;;;;;;;33.17;12.50;;;;;;;-10.39;100.00;101013.38;6153280;23;20008;-96
2022/12/13 06:44:06;;;;;;;36.40;13.35;;;;;;;-10.27;100.00;101019.38;6154991;23;20053;-93
2022/12/13 06:46:32;;;;;;;30.60;11.50;;;;;;;-10.32;100.00;101014.53;6154460;23;20081;-94
2022/12/13 06:48:57;;;;;;;37.30;13.45;;;;;;;-10.29;100.00;101003.94;6153848;23;20006;-93
2022/12/13 06:51:23;;;;;;;34.73;13.10;;;;;;;-10.16;100.00;101011.63;6152035;23;20005;-94
2022/12/13 06:53:48;;;;;;;30.67;12.17;;;;;;;-10.26;100.00;101008.91;6154272;23;20014;-95
2022/12/13 06:56:14;;;;;;;33.60;12.80;;;;;;;-10.32;100.00;101019.72;6153739;23;20048;-94
2022/12/13 06:58:41;;;;;;;31.73;12.53;;;;;;;-10.42;100.00;101008.44;6156791;23;20256;-92
2022/12/13 07:01:09;;;;;;;32.17;12.38;;;;;;;-10.43;100.00;101011.97;6155389;23;20014;-94
2022/12/13 07:03:35;;;;;;;38.45;12.70;;;;;;;-10.46;100.00;101012.22;6152437;23;20347;-94
2022/12/13 07:06:16;;;;;;;34.30;12.97;;;;;;;-10.46;100.00;101015.59;6153507;23;20039;-95
2022/12/13 07:08:47;;;;;;;34.25;12.48;;;;;;;-10.49;100.00;101008.06;6154190;23;20008;-95
2022/12/13 07:16:27;;;;;;;35.63;13.00;;;;;;;-10.33;100.00;101018.06;6150029;22;21910;-93
2022/12/13 07:19:30;;;;;;;40.43;13.03;;;;;;;-10.33;100.00;101018.06;6155274;23;20009;-93
2022/12/13 07:22:08;;;;;;;40.72;13.50;;;;;;;-10.48;100.00;100988.19;6154605;23;20009;-91
2022/12/13 07:24:34;;;;;;;35.90;12.85;;;;;;;-10.52;100.00;100993.59;6154322;23;20009;-95
2022/12/13 07:27:08;;;;;;;37.17;12.82;;;;;;;-10.60;100.00;100984.75;6154906;23;20024;-94
2022/12/13 07:29:45;;;;;;;31.83;12.17;;;;;;;-10.52;100.00;101006.53;6153392;23;20009;-94
2022/12/13 07:32:59;;;;;;;34.33;13.50;;;;;;;-10.59;100.00;100994.16;6153118;23;20233;-93
2022/12/13 07:34:59;;;;;;;40.15;13.85;;;;;;;-10.60;100.00;100989.91;6138176;23;20480;-94
2022/12/13 07:37:24;;;;;;;47.63;14.90;;;;;;;-10.62;100.00;100992.63;6155433;23;20009;-93
2022/12/13 07:39:59;;;;;;;45.83;16.07;;;;;;;-10.60;100.00;100995.09;6162632;23;20061;-94
2022/12/13 07:42:24;;;;;;;48.63;15.77;;;;;;;-10.54;100.00;100998.06;6163979;23;20237;-96
2022/12/13 07:45:14;;;;;;;;;;;;;;;;;;;;;
2022/12/13 07:51:02;;;;;;;46.87;16.30;;;;;;;-10.57;100.00;100993.09;6170603;22;20276;-95
2022/12/13 07:54:07;;;;;;;53.58;15.15;;;;;;;-10.65;100.00;101000.63;6125868;23;20016;-93
2022/12/13 07:56:33;;;;;;;49.53;15.57;;;;;;;-10.58;100.00;101003.59;6126393;23;20016;-92
2022/12/13 07:58:58;;;;;;;47.15;14.55;;;;;;;-10.53;100.00;101009.25;6122018;23;20419;-93
2022/12/13 08:01:23;;;;;;;49.03;14.73;;;;;;;-10.37;100.00;101032.19;6122559;23;20427;-92
2022/12/13 08:03:50;;;;;;;54.05;14.90;;;;;;;-10.40;100.00;101028.13;6122362;23;20649;-91
2022/12/13 08:06:15;;;;;;;56.67;15.73;;;;;;;-10.32;100.00;101019.72;6124785;23;20002;-90
2022/12/13 08:08:41;;;;;;;46.70;16.05;;;;;;;-10.13;100.00;101024.31;6121333;23;20002;-92
2022/12/13 08:11:10;;;;;;;50.53;14.70;;;;;;;-10.09;100.00;101030.13;6096746;23;20010;-92
2022/12/13 08:13:36;;;;;;;53.60;16.63;;;;;;;-10.02;100.00;101027.88;6126017;23;20029;-91
2022/12/13 08:16:07;;;;;;;56.95;18.40;;;;;;;-9.91;100.00;101015.72;6123712;23;20002;-92
2022/12/13 08:18:33;;;;;;;48.60;19.35;;;;;;;-9.71;100.00;101025.47;6124961;23;20366;-94
2022/12/13 08:21:03;;;;;;;51.33;16.23;;;;;;;-9.65;100.00;101015.44;6135360;23;20006;-96
2022/12/13 08:23:31;;;;;;;53.60;16.93;;;;;;;-9.52;100.00;101025.69;6128039;23;20251;-93
2022/12/13 08:25:57;;;;;;;54.63;17.48;;;;;;;-9.40;100.00;101026.50;6124401;23;20006;-92
2022/12/13 08:28:23;;;;;;;51.70;16.97;;;;;;;-9.31;100.00;101022.34;6122100;23;20017;-92
2022/12/13 08:30:49;;;;;;;56.45;18.90;;;;;;;-9.13;100.00;101030.44;6123812;23;20435;-95
2022/12/13 08:33:15;;;;;;;59.22;18.63;;;;;;;-9.05;100.00;101035.81;6152437;22;20014;-95
2022/12/13 08:35:40;;;;;;;57.43;19.77;;;;;;;-9.07;100.00;101021.31;6154446;23;20008;-93
2022/12/13 08:38:06;;;;;;;54.95;19.80;;;;;;;-9.10;100.00;101017.19;6153525;23;20075;-94
2022/12/13 08:40:41;;;;;;;53.33;18.93;;;;;;;-8.94;100.00;101032.34;6154033;23;20006;-94
2022/12/13 08:43:06;;;;;;;59.10;19.85;;;;;;;-8.77;100.00;101025.78;6155582;23;20009;-93
2022/12/13 08:45:33;;;;;;;67.23;21.80;;;;;;;-8.56;100.00;101037.94;6158462;23;19997;-93
2022/12/13 08:48:01;;;;;;;56.15;18.60;;;;;;;-8.66;100.00;101009.28;6157587;23;20009;-93
2022/12/13 08:50:48;;;;;;;56.58;19.63;;;;;;;-8.46;100.00;101028.41;6156058;23;20001;-91
2022/12/13 08:53:35;;;;;;;66.50;19.92;;;;;;;-8.19;100.00;101050.44;6156555;23;20013;-94
2022/12/13 08:56:09;;;;;;;57.17;20.38;;;;;;;-8.23;100.00;101021.28;6154816;23;20032;-94
2022/12/13 08:58:35;;;;;;;58.80;20.50;;;;;;;-7.95;100.00;101044.13;6154247;23;20020;-93
2022/12/13 09:01:03;;;;;;;55.00;19.63;;;;;;;-7.71;100.00;101048.19;6152457;23;20021;-92
2022/12/13 09:15:48;;;;;;;88.13;29.35;;;;;;;-6.97;100.00;101025.25;6158760;22;20021;-93
2022/12/13 09:18:13;;;;;;;86.00;28.85;;;;;;;-6.77;100.00;101033.91;6151774;23;20093;-91
2022/12/13 09:20:40;;;;;;;95.23;30.07;;;;;;;-6.60;100.00;101035.78;6153363;23;20056;-91
2022/12/13 09:23:06;;;;;;;80.57;26.10;;;;;;;-6.54;100.00;101039.63;6131167;23;20009;-92
2022/12/13 09:25:32;;;;;;;69.43;24.57;;;;;;;-6.51;100.00;101036.75;6164815;23;20058;-90
2022/12/13 09:28:07;;;;;;;83.87;27.27;;;;;;;-6.33;100.00;101042.03;6154961;23;20311;-91
2022/12/13 09:30:44;;;;;;;88.18;29.23;;;;;;;-6.23;100.00;101044.63;6153692;23;20096;-90
2022/12/13 09:33:12;;;;;;;72.53;24.33;;;;;;;-6.08;100.00;101055.44;6128621;23;20001;-92
2022/12/13 09:35:38;;;;;;;77.97;25.70;;;;;;;-5.93;100.00;101060.97;6153569;23;20558;-91
2022/12/13 09:38:04;;;;;;;68.63;23.43;;;;;;;-5.81;100.00;101072.88;6154155;23;20010;-90
2022/12/13 09:40:31;;;;;;;77.57;27.30;;;;;;;-5.76;100.00;101055.97;6153261;23;20060;-91
2022/12/13 09:43:00;;;;;;;66.43;24.02;;;;;;;-5.72;100.00;101059.91;6153245;23;20355;-91
2022/12/13 09:45:27;;;;;;;75.78;24.20;;;;;;;-5.69;100.00;101062.25;6154285;23;20005;-87
2022/12/13 09:47:53;;;;;;;60.92;21.40;;;;;;;-5.62;100.00;101052.88;6152534;23;20012;-92
2022/12/13 09:50:26;;;;;;;78.10;26.70;;;;;;;-5.49;100.00;101063.78;6151909;23;20048;-93
2022/12/13 09:52:51;;;;;;;69.60;25.00;;;;;;;-5.42;100.00;101058.81;6154077;23;20418;-92
2022/12/13 09:55:31;;;;;;;75.70;25.10;;;;;;;-5.28;100.00;101062.72;6154858;23;20052;-92
2022/12/13 09:57:57;;;;;;;82.47;27.45;;;;;;;-5.20;100.00;101051.50;6152433;23;20076;-93
2022/12/13 10:00:31;;;;;;;72.45;25.52;;;;;;;-5.13;100.00;101049.13;6154233;23;20016;-93
2022/12/13 10:03:01;;;;;;;60.30;21.92;;;;;;;-5.04;100.00;101038.59;6154304;23;20006;-93
2022/12/13 10:05:34;;;;;;;66.73;23.40;;;;;;;-4.97;100.00;101040.63;6154489;23;20001;-92
2022/12/13 10:08:08;;;;;;;74.90;25.47;;;;;;;-4.99;100.00;101032.13;6128034;23;20278;-93
2022/12/13 10:10:33;;;;;;;75.60;23.98;;;;;;;-4.90;100.00;101034.66;6154018;23;20498;-93
2022/12/13 10:13:15;;;;;;;75.20;27.00;;;;;;;-4.78;100.00;101037.00;6154596;23;20001;-93
2022/12/13 10:15:47;;;;;;;75.40;24.87;;;;;;;-4.73;100.00;101035.59;6154118;23;20024;-93
2022/12/13 10:18:23;;;;;;;74.47;25.90;;;;;;;-4.69;100.00;101030.88;6164196;23;20021;-93
2022/12/13 10:20:49;;;;;;;81.80;30.90;;;;;;;-4.69;100.00;101009.13;6170043;23;20005;-92
2022/12/13 10:23:15;;;;;;;69.47;24.23;;;;;;;-4.62;100.00;101021.44;6169021;23;20005;-93
2022/12/13 10:25:47;;;;;;;69.97;25.47;;;;;;;-4.57;100.00;101019.19;6168941;23;20013;-93
2022/12/13 10:28:15;;;;;;;79.93;27.55;;;;;;;-4.54;100.00;101025.91;6163569;23;20009;-93
2022/12/13 10:30:43;;;;;;;65.57;23.58;;;;;;;-4.50;100.00;101019.41;6155542;23;20013;-92
2022/12/13 10:33:32;;;;;;;60.17;22.10;;;;;;;-4.50;100.00;101015.97;6154697;23;20006;-93
2022/12/13 10:36:27;;;;;;;63.23;20.97;;;;;;;-4.54;100.00;101014.63;6154272;23;20311;-92
2022/12/13 10:38:53;;;;;;;65.35;22.60;;;;;;;-4.54;100.00;101015.44;6153633;23;20013;-92
2022/12/13 10:41:47;;;;;;;55.47;18.77;;;;;;;-4.54;100.00;101004.97;6153809;23;20009;-92
2022/12/13 10:44:24;;;;;;;59.25;21.75;;;;;;;-4.52;100.00;101003.03;6127588;23;20013;-92
2022/12/13 10:46:53;;;;;;;51.60;20.27;;;;;;;-4.51;100.00;100991.59;6127205;23;20006;-92
2022/12/13 10:49:23;;;;;;;57.60;22.33;;;;;;;-4.53;100.00;100985.69;6153817;23;20315;-91
2022/12/13 10:51:52;;;;;;;56.55;21.30;;;;;;;-4.45;100.00;101004.06;6153276;23;20032;-92
2022/12/13 10:54:27;;;;;;;61.83;21.30;;;;;;;-4.36;100.00;100993.63;6127523;23;20006;-92
2022/12/13 10:56:58;;;;;;;62.75;22.58;;;;;;;-4.23;100.00;100988.00;6153620;23;20362;-92
2022/12/13 10:59:27;;;;;;;66.30;25.20;;;;;;;-4.06;100.00;100983.66;6141452;23;20143;-92
2022/12/13 11:01:53;;;;;;;68.88;26.25;;;;;;;-3.92;100.00;100975.19;6158011;23;20009;-92
2022/12/13 11:04:20;;;;;;;62.83;24.20;;;;;;;-3.75;100.00;100970.00;6130912;23;20013;-93
2022/12/13 11:06:46;;;;;;;59.90;24.02;;;;;;;-3.67;100.00;100975.28;6155353;23;20025;-91
2022/12/13 11:09:22;;;;;;;62.53;22.00;;;;;;;-3.55;100.00;100970.53;6158179;23;20001;-92
2022/12/13 11:11:50;;;;;;;62.70;23.73;;;;;;;-3.54;100.00;100962.53;6166058;23;20010;-93
2022/12/13 11:14:18;;;;;;;55.97;19.90;;;;;;;-3.51;100.00;100964.00;6159106;23;20117;-92
2022/12/13 11:16:49;;;;;;;51.67;20.60;;;;;;;-3.54;100.00;100957.28;6128304;23;20009;-91
2022/12/13 11:19:44;;;;;;;58.85;21.45;;;;;;;-3.58;100.00;100955.97;6153072;23;20001;-92
2022/12/13 11:22:20;;;;;;;53.75;20.73;;;;;;;-3.60;100.00;100952.69;6152441;23;20009;-93
2022/12/13 11:24:50;;;;;;;52.70;21.60;;;;;;;-3.60;100.00;100959.75;6152265;23;20481;-92
2022/12/13 11:27:33;;;;;;;43.73;19.20;;;;;;;-3.52;100.00;100971.06;6153305;23;20257;-91
2022/12/13 11:30:16;;;;;;;52.88;21.60;;;;;;;-3.48;100.00;100960.25;6152403;23;20035;-91
2022/12/13 11:33:18;;;;;;;54.28;20.30;;;;;;;-3.43;100.00;100963.19;6153190;23;20013;-94
2022/12/13 11:36:10;;;;;;;47.38;20.25;;;;;;;-3.34;100.00;100957.00;6151785;23;20410;-94
2022/12/13 11:38:51;;;;;;;47.20;17.55;;;;;;;-3.27;100.00;100957.97;6155734;23;20012;-90
2022/12/13 11:41:25;;;;;;;49.85;18.95;;;;;;;-3.23;100.00;100961.91;6167492;23;20005;-91
2022/12/13 11:44:12;;;;;;;49.50;19.13;;;;;;;-3.19;100.00;100965.00;6160991;23;20013;-93
2022/12/13 11:46:41;;;;;;;43.17;16.87;;;;;;;-3.11;100.00;100962.41;6153040;23;20010;-95
2022/12/13 11:49:20;;;;;;;50.83;20.23;;;;;;;-3.07;100.00;100947.16;6153215;23;20241;-91
2022/12/13 11:51:55;;;;;;;41.17;17.77;;;;;;;-2.97;100.00;100947.00;6152157;23;20002;-93
2022/12/13 11:54:32;;;;;;;44.20;17.75;;;;;;;-2.89;100.00;100949.63;6153429;23;20194;-92
2022/12/13 11:57:06;;;;;;;46.78;17.90;;;;;;;-2.82;100.00;100936.66;6152287;23;20002;-91
2022/12/13 11:59:57;;;;;;;48.13;17.08;;;;;;;-2.77;100.00;100927.28;6154597;23;20001;-93
2022/12/13 12:02:34;;;;;;;44.33;18.73;;;;;;;-2.70;100.00;100927.44;6162931;23;20006;-94
2022/12/13 12:05:05;;;;;;;48.47;20.35;;;;;;;-2.67;100.00;100921.88;6162986;23;20006;-95
2022/12/13 12:07:45;;;;;;;41.83;16.87;;;;;;;-2.60;100.00;100920.22;6152372;23;20089;-96
2022/12/13 12:10:39;;;;;;;43.78;17.17;;;;;;;-2.53;100.00;100922.16;6151629;23;20009;-95
2022/12/13 12:13:25;;;;;;;44.20;18.35;;;;;;;-2.51;100.00;100917.56;6155624;23;20001;-92
2022/12/13 12:16:09;;;;;;;37.97;17.10;;;;;;;-2.39;100.00;100904.88;6158874;23;20013;-94
2022/12/13 12:18:36;;;;;;;38.03;14.93;;;;;;;-2.24;100.00;100905.00;6154474;23;20017;-94
2022/12/13 12:21:13;;;;;;;45.25;17.85;;;;;;;-2.19;100.00;100900.06;6152437;23;20128;-92
2022/12/13 12:24:02;;;;;;;39.50;16.48;;;;;;;-2.13;100.00;100901.97;6153489;23;20100;-90
2022/12/13 12:26:52;;;;;;;34.20;14.73;;;;;;;-2.22;100.00;100908.28;6160437;23;20006;-91
2022/12/13 12:29:30;;;;;;;36.77;14.80;;;;;;;-2.38;100.00;100909.97;6157129;23;20245;-88
2022/12/13 12:32:21;;;;;;;36.28;14.80;;;;;;;-2.45;100.00;100914.25;6153733;23;20005;-89
2022/12/13 12:35:18;;;;;;;38.75;15.90;;;;;;;-2.59;100.00;100919.22;6155288;23;20005;-89
2022/12/13 12:38:19;;;;;;;37.85;14.77;;;;;;;-2.64;100.00;100911.03;6107544;23;20040;-89
2022/12/13 12:40:50;;;;;;;37.70;14.77;;;;;;;-2.65;100.00;100901.53;6159540;23;20062;-90